createdAt,value
2023-05-02T00:08:17.931Z,9.10
2023-05-02T00:10:44.697Z,9.10
2023-05-02T00:13:11.279Z,9.00
2023-05-02T00:15:37.822Z,9.00
2023-05-02T00:18:04.407Z,8.90
2023-05-02T00:20:31.167Z,8.90
2023-05-02T00:22:57.757Z,8.90
2023-05-02T00:25:24.301Z,8.90
2023-05-02T00:27:51.319Z,8.80
2023-05-02T00:30:18.603Z,8.70
2023-05-02T00:32:45.486Z,8.70
2023-05-02T00:35:12.167Z,8.80
2023-05-02T00:37:39.179Z,8.70
2023-05-02T00:40:08.248Z,8.70
2023-05-02T00:42:36.296Z,8.70
2023-05-02T00:45:04.701Z,8.60
2023-05-02T00:47:31.468Z,8.60
2023-05-02T00:49:59.153Z,8.70
2023-05-02T00:52:26.011Z,8.70
2023-05-02T00:54:52.691Z,8.70
2023-05-02T00:57:19.278Z,8.70
2023-05-02T00:59:45.845Z,8.60
2023-05-02T01:02:15.386Z,9.10
2023-05-02T01:05:20.701Z,8.60
2023-05-02T01:08:05.755Z,8.60
2023-05-02T01:10:47.639Z,8.60
2023-05-02T01:13:17.799Z,8.70
2023-05-02T01:15:45.369Z,8.70
2023-05-02T01:18:13.523Z,8.70
2023-05-02T01:20:42.408Z,11.10
2023-05-02T01:23:16.276Z,8.60
2023-05-02T01:26:02.453Z,8.60
2023-05-02T01:28:38.652Z,8.50
2023-05-02T01:31:06.099Z,8.60
2023-05-02T01:38:27.222Z,8.70
2023-05-02T01:40:54.595Z,8.60
2023-05-02T01:43:21.905Z,8.60
2023-05-02T01:45:50.040Z,8.60
2023-05-02T01:48:17.765Z,8.60
2023-05-02T01:50:44.916Z,8.50
2023-05-02T01:53:13.792Z,8.50
2023-05-02T01:55:42.078Z,8.50
2023-05-02T01:58:09.408Z,8.50
2023-05-02T02:00:37.402Z,8.40
2023-05-02T02:03:06.409Z,8.50
2023-05-02T02:05:33.832Z,8.50
2023-05-02T02:08:00.726Z,8.40
2023-05-02T02:10:29.764Z,8.40
2023-05-02T02:13:00.900Z,8.30
2023-05-02T02:30:11.869Z,8.30
2023-05-02T02:32:38.513Z,8.40
2023-05-02T02:42:42.248Z,8.40
2023-05-02T03:04:46.894Z,8.20
2023-05-02T03:07:13.725Z,8.20
2023-05-02T03:12:07.728Z,8.00
2023-05-02T03:14:34.653Z,8.00
2023-05-02T03:24:22.918Z,7.80
2023-05-02T03:26:49.508Z,7.70
2023-05-02T03:29:16.633Z,7.60
2023-05-02T03:31:43.620Z,7.70
2023-05-02T03:34:10.295Z,7.70
2023-05-02T03:36:37.306Z,7.70
2023-05-02T03:39:04.019Z,7.60
2023-05-02T03:41:30.794Z,7.70
2023-05-02T03:43:57.375Z,7.60
2023-05-02T03:46:24.013Z,7.60
2023-05-02T03:48:50.656Z,7.50
2023-05-02T03:51:17.304Z,7.50
2023-05-02T03:53:43.841Z,7.50
2023-05-02T03:56:10.713Z,7.40
2023-05-02T03:58:37.528Z,7.50
2023-05-02T04:01:04.127Z,7.50
2023-05-02T04:03:30.990Z,7.50
2023-05-02T04:13:19.646Z,7.90
2023-05-02T04:20:42.657Z,8.00
2023-05-02T04:45:12.812Z,8.50
2023-05-02T04:47:40.122Z,8.50
2023-05-02T04:50:07.226Z,8.60
2023-05-02T04:52:33.786Z,8.70
2023-05-02T04:55:00.443Z,8.70
2023-05-02T04:57:27.004Z,8.70
2023-05-02T04:59:54.010Z,8.80
2023-05-02T05:02:20.738Z,8.80
2023-05-02T05:04:47.410Z,9.00
2023-05-02T05:07:13.994Z,9.00
2023-05-02T05:09:40.590Z,9.00
2023-05-02T05:12:07.597Z,9.10
2023-05-02T05:14:34.672Z,9.30
2023-05-02T05:17:01.227Z,9.30
2023-05-02T05:19:27.968Z,9.20
2023-05-02T05:21:54.540Z,9.20
2023-05-02T05:24:21.188Z,9.30
2023-05-02T05:26:47.790Z,9.40
2023-05-02T05:29:14.308Z,9.50
2023-05-02T05:31:41.802Z,9.60
2023-05-02T05:34:08.566Z,9.80
2023-05-02T05:36:35.459Z,9.70
2023-05-02T05:39:01.982Z,9.90
2023-05-02T05:41:28.930Z,9.90
2023-05-02T05:43:56.317Z,10.10
2023-05-02T05:46:22.946Z,10.20
2023-05-02T05:48:49.635Z,10.40
2023-05-02T05:51:16.176Z,10.50
2023-05-02T05:53:42.740Z,10.60
2023-05-02T05:56:12.953Z,10.70
2023-05-02T05:58:39.857Z,10.90
2023-05-02T06:01:06.703Z,10.90
2023-05-02T06:03:33.575Z,11.10
2023-05-02T06:06:00.523Z,11.10
2023-05-02T06:08:27.108Z,11.10
2023-05-02T06:10:53.831Z,11.60
2023-05-02T06:13:20.367Z,11.20
2023-05-02T06:15:47.027Z,11.50
2023-05-02T06:18:14.128Z,11.20
2023-05-02T06:20:40.748Z,11.30
2023-05-02T06:23:07.860Z,11.30
2023-05-02T06:25:37.088Z,11.40
2023-05-02T06:28:03.689Z,11.50
2023-05-02T06:30:30.314Z,11.50
2023-05-02T06:32:56.947Z,11.50
2023-05-02T06:35:23.606Z,11.50
2023-05-02T06:37:50.149Z,12.00
2023-05-02T06:40:16.680Z,11.60
2023-05-02T06:42:43.275Z,11.80
2023-05-02T06:45:10.066Z,11.90
2023-05-02T06:47:36.646Z,11.80
2023-05-02T06:50:03.894Z,11.90
2023-05-02T06:52:31.040Z,11.90
2023-05-02T06:54:58.076Z,12.10
2023-05-02T06:57:24.992Z,12.20
2023-05-02T06:59:51.570Z,12.10
2023-05-02T07:02:18.150Z,12.20
2023-05-02T07:04:44.802Z,12.30
2023-05-02T07:07:11.424Z,12.40
2023-05-02T07:09:38.272Z,12.40
2023-05-02T07:12:06.951Z,12.50
2023-05-02T07:14:33.747Z,12.60
2023-05-02T07:17:00.580Z,12.70
2023-05-02T07:19:27.268Z,12.60
2023-05-02T07:21:53.852Z,12.60
2023-05-02T07:24:20.550Z,12.60
2023-05-02T07:26:47.328Z,12.60
2023-05-02T07:29:14.202Z,12.60
2023-05-02T07:31:40.934Z,12.60
2023-05-02T07:34:07.564Z,12.60
2023-05-02T07:36:34.188Z,12.70
2023-05-02T07:39:01.137Z,12.80
2023-05-02T07:41:27.710Z,12.90
2023-05-02T07:43:54.361Z,13.10
2023-05-02T07:46:21.478Z,13.20
2023-05-02T07:48:48.205Z,13.30
2023-05-02T07:51:14.881Z,13.30
2023-05-02T07:53:41.498Z,13.30
2023-05-02T07:56:08.701Z,13.30
2023-05-02T07:58:36.936Z,13.30
2023-05-02T08:01:03.969Z,13.20
2023-05-02T08:03:31.550Z,13.20
2023-05-02T08:05:58.288Z,14.60
2023-05-02T08:08:25.201Z,13.10
2023-05-02T08:10:51.845Z,13.10
2023-05-02T08:13:18.456Z,13.00
2023-05-02T08:15:45.103Z,11.00
2023-05-02T08:18:11.803Z,12.90
2023-05-02T08:20:38.480Z,12.80
2023-05-02T08:23:05.050Z,12.80
2023-05-02T08:25:31.719Z,12.70
2023-05-02T08:27:58.346Z,12.70
2023-05-02T08:30:24.887Z,12.70
2023-05-02T08:32:51.528Z,12.80
2023-05-02T08:35:18.415Z,12.80
2023-05-02T08:37:45.000Z,12.90
2023-05-02T08:40:12.228Z,13.00
2023-05-02T08:42:41.198Z,13.10
2023-05-02T08:45:08.565Z,13.20
2023-05-02T08:47:36.341Z,13.40
2023-05-02T08:50:03.731Z,13.70
2023-05-02T08:52:32.117Z,14.10
2023-05-02T08:55:00.970Z,14.70
2023-05-02T08:57:31.004Z,15.50
2023-05-02T08:59:57.798Z,16.70
2023-05-02T09:02:44.985Z,17.50
2023-05-02T09:05:11.863Z,17.90
2023-05-02T09:07:48.002Z,18.00
2023-05-02T09:10:14.973Z,18.30
2023-05-02T09:12:41.803Z,19.10
2023-05-02T09:15:19.808Z,20.10
2023-05-02T09:17:48.125Z,21.50
2023-05-02T09:20:17.737Z,22.90
2023-05-02T09:22:48.303Z,23.40
2023-05-02T09:25:15.001Z,24.10
2023-05-02T09:27:52.727Z,25.00
2023-05-02T09:30:20.336Z,26.00
2023-05-02T09:32:48.120Z,26.70
2023-05-02T09:35:23.449Z,27.80
2023-05-02T09:37:58.266Z,27.90
2023-05-02T09:40:25.089Z,28.30
2023-05-02T09:42:52.465Z,28.70
2023-05-02T09:45:23.178Z,29.40
2023-05-02T09:47:50.197Z,30.00
2023-05-02T09:50:34.296Z,30.50
2023-05-02T09:53:05.463Z,31.00
2023-05-02T09:55:32.286Z,31.40
2023-05-02T09:57:59.517Z,31.70
2023-05-02T10:00:45.114Z,31.30
2023-05-02T10:03:15.601Z,31.00
2023-05-02T10:05:42.930Z,29.60
2023-05-02T10:08:13.924Z,29.40
2023-05-02T10:10:41.089Z,28.30
2023-05-02T10:13:08.447Z,26.40
2023-05-02T10:15:42.864Z,26.40
2023-05-02T10:18:14.502Z,26.10
2023-05-02T10:20:47.356Z,25.90
2023-05-02T10:23:14.558Z,26.20
2023-05-02T10:25:41.475Z,26.70
2023-05-02T10:28:09.770Z,26.60
2023-05-02T10:30:36.475Z,27.10
2023-05-02T10:33:03.230Z,28.20
2023-05-02T10:35:30.649Z,28.30
2023-05-02T10:37:58.075Z,27.70
2023-05-02T10:40:24.815Z,29.70
2023-05-02T10:42:52.334Z,30.30
2023-05-02T10:45:34.888Z,30.70
2023-05-02T10:48:20.809Z,30.40
2023-05-02T10:50:48.547Z,29.80
2023-05-02T10:53:27.437Z,29.90
2023-05-02T10:56:13.993Z,29.90
2023-05-02T10:58:40.774Z,29.20
2023-05-02T11:01:29.181Z,28.60
2023-05-02T11:03:58.889Z,29.00
2023-05-02T11:06:35.978Z,29.30
2023-05-02T11:09:20.818Z,29.80
2023-05-02T11:11:52.805Z,30.80
2023-05-02T11:14:25.388Z,30.60
2023-05-02T11:17:02.222Z,30.30
2023-05-02T11:19:31.211Z,30.10
2023-05-02T11:22:17.201Z,29.70
2023-05-02T11:24:44.678Z,30.30
2023-05-02T11:27:30.018Z,29.50
2023-05-02T11:29:56.742Z,29.00
2023-05-02T11:32:23.997Z,28.80
2023-05-02T11:34:53.041Z,27.80
2023-05-02T11:37:21.121Z,27.10
2023-05-02T11:39:47.742Z,26.80
2023-05-02T11:42:30.358Z,26.30
2023-05-02T11:44:57.416Z,26.20
2023-05-02T11:47:24.867Z,25.60
2023-05-02T11:49:51.409Z,25.50
2023-05-02T11:52:17.985Z,25.30
2023-05-02T11:54:44.604Z,25.60
2023-05-02T11:57:11.594Z,25.30
2023-05-02T11:59:51.662Z,25.00
2023-05-02T12:02:18.386Z,24.60
2023-05-02T12:07:12.375Z,23.80
2023-05-02T12:09:52.789Z,23.30
2023-05-02T12:12:19.991Z,23.00
2023-05-02T12:14:46.626Z,22.60
2023-05-02T12:19:42.065Z,22.10
2023-05-02T12:22:09.752Z,24.00
2023-05-02T12:24:36.580Z,22.40
2023-05-02T12:27:16.157Z,22.70
2023-05-02T12:29:43.915Z,23.30
2023-05-02T12:32:11.441Z,23.90
2023-05-02T12:34:39.024Z,23.90
2023-05-02T12:37:06.329Z,23.90
2023-05-02T12:39:40.143Z,23.60
2023-05-02T12:42:10.906Z,23.40
2023-05-02T12:44:41.978Z,23.20
2023-05-02T12:47:09.787Z,23.00
2023-05-02T12:49:52.515Z,22.80
2023-05-02T12:52:42.319Z,22.20
2023-05-02T12:55:19.065Z,22.20
2023-05-02T12:57:45.959Z,21.80
2023-05-02T13:00:12.973Z,21.50
2023-05-02T13:02:40.034Z,21.30
2023-05-02T13:05:13.789Z,21.10
2023-05-02T13:07:40.979Z,20.70
2023-05-02T13:10:07.992Z,20.10
2023-05-02T13:12:37.186Z,19.50
2023-05-02T13:15:04.811Z,18.90
2023-05-02T13:17:31.723Z,18.70
2023-05-02T13:20:01.997Z,18.20
2023-05-02T13:22:29.099Z,17.90
2023-05-02T13:24:55.945Z,17.60
2023-05-02T13:27:22.999Z,17.50
2023-05-02T13:29:49.926Z,17.40
2023-05-02T13:32:16.687Z,17.20
2023-05-02T13:34:43.449Z,16.80
2023-05-02T13:37:10.431Z,16.50
2023-05-02T13:39:37.015Z,16.50
2023-05-02T13:42:05.950Z,16.10
2023-05-02T13:44:32.961Z,16.00
2023-05-02T13:46:59.493Z,15.90
2023-05-02T13:49:26.338Z,15.70
2023-05-02T13:51:52.879Z,15.70
2023-05-02T13:54:19.744Z,15.80
2023-05-02T13:56:46.308Z,15.70
2023-05-02T13:59:13.002Z,15.80
2023-05-02T14:01:40.624Z,16.10
2023-05-02T14:04:08.730Z,16.60
2023-05-02T14:06:36.045Z,17.40
2023-05-02T14:09:02.950Z,18.50
2023-05-02T14:11:29.660Z,19.60
2023-05-02T14:13:58.240Z,20.70
2023-05-02T14:16:24.912Z,21.30
2023-05-02T14:18:51.648Z,21.70
2023-05-02T14:21:18.259Z,22.30
2023-05-02T14:23:44.812Z,22.10
2023-05-02T14:26:11.526Z,22.30
2023-05-02T14:28:40.359Z,22.40
2023-05-02T14:31:07.509Z,22.50
2023-05-02T14:33:34.161Z,22.70
2023-05-02T14:36:00.839Z,22.90
2023-05-02T14:38:27.515Z,22.80
2023-05-02T14:40:55.049Z,22.60
2023-05-02T14:43:21.784Z,22.70
2023-05-02T14:45:48.399Z,22.80
2023-05-02T14:48:17.239Z,23.00
2023-05-02T14:50:44.173Z,22.90
2023-05-02T14:53:11.941Z,23.00
2023-05-02T14:55:39.226Z,23.10
2023-05-02T14:58:07.066Z,22.80
2023-05-02T15:00:34.692Z,22.50
2023-05-02T15:03:01.825Z,22.50
2023-05-02T15:05:29.978Z,22.30
2023-05-02T15:07:56.714Z,22.40
2023-05-02T15:10:23.296Z,22.40
2023-05-02T15:12:52.629Z,22.40
2023-05-02T15:15:19.788Z,22.20
2023-05-02T15:17:46.403Z,22.00
2023-05-02T15:20:13.270Z,21.90
2023-05-02T15:22:39.898Z,21.90
2023-05-02T15:25:06.810Z,21.70
2023-05-02T15:27:33.893Z,21.70
2023-05-02T15:30:01.070Z,21.70
2023-05-02T15:32:27.930Z,21.40
2023-05-02T15:34:54.733Z,21.40
2023-05-02T15:37:21.328Z,21.40
2023-05-02T15:39:47.915Z,21.30
2023-05-02T15:42:14.481Z,21.30
2023-05-02T15:44:41.022Z,21.30
2023-05-02T15:47:09.816Z,21.20
2023-05-02T15:49:37.302Z,21.20
2023-05-02T15:52:03.965Z,21.10
2023-05-02T15:54:32.096Z,21.00
2023-05-02T15:56:58.762Z,21.20
2023-05-02T15:59:25.427Z,21.50
2023-05-02T16:01:52.427Z,21.60
2023-05-02T16:04:19.036Z,21.60
2023-05-02T16:06:45.712Z,21.70
2023-05-02T16:09:12.932Z,21.60
2023-05-02T16:11:39.506Z,21.50
2023-05-02T16:14:06.181Z,21.40
2023-05-02T16:16:33.904Z,21.20
2023-05-02T16:19:00.798Z,21.20
2023-05-02T16:21:27.426Z,23.10
2023-05-02T16:23:54.035Z,21.30
2023-05-02T16:26:21.281Z,21.60
2023-05-02T16:28:47.964Z,21.10
2023-05-02T16:31:15.208Z,21.10
2023-05-02T16:33:42.781Z,20.90
2023-05-02T16:36:09.752Z,20.80
2023-05-02T16:38:36.598Z,20.80
2023-05-02T16:41:04.278Z,20.80
2023-05-02T16:43:30.893Z,20.70
2023-05-02T16:46:01.578Z,20.60
2023-05-02T16:48:28.265Z,20.50
2023-05-02T16:50:54.952Z,20.40
2023-05-02T16:53:21.600Z,23.10
2023-05-02T16:55:48.283Z,20.40
2023-05-02T16:58:15.024Z,20.30
2023-05-02T17:00:41.882Z,20.30
2023-05-02T17:03:08.815Z,20.30
2023-05-02T17:05:35.688Z,20.10
2023-05-02T17:08:03.369Z,22.00
2023-05-02T17:10:29.957Z,19.90
2023-05-02T17:12:58.347Z,19.90
2023-05-02T17:15:25.096Z,19.80
2023-05-02T17:17:51.897Z,19.80
2023-05-02T17:20:20.386Z,19.80
2023-05-02T17:22:47.013Z,19.70
2023-05-02T17:25:14.049Z,19.50
2023-05-02T17:27:41.314Z,19.10
2023-05-02T17:30:08.226Z,18.60
2023-05-02T17:32:35.364Z,18.40
2023-05-02T17:35:02.015Z,18.20
2023-05-02T17:37:28.810Z,17.90
2023-05-02T17:39:55.517Z,17.70
2023-05-02T17:42:22.050Z,17.50
2023-05-02T17:44:48.783Z,17.30
2023-05-02T17:47:16.858Z,17.30
2023-05-02T17:49:43.456Z,17.10
2023-05-02T17:52:10.066Z,16.90
2023-05-02T17:54:36.621Z,16.70
2023-05-02T17:57:03.180Z,16.60
2023-05-02T17:59:29.773Z,16.40
2023-05-02T18:01:56.916Z,16.30
2023-05-02T18:04:25.418Z,16.10
2023-05-02T18:06:52.075Z,16.00
2023-05-02T18:09:18.779Z,15.90
2023-05-02T18:11:45.586Z,16.00
2023-05-02T18:14:12.599Z,15.70
2023-05-02T18:16:41.411Z,15.80
2023-05-02T18:19:10.322Z,15.70
2023-05-02T18:21:37.480Z,15.50
2023-05-02T18:24:04.767Z,15.60
2023-05-02T18:26:31.464Z,15.60
2023-05-02T18:28:58.108Z,15.50
2023-05-02T18:31:25.145Z,15.40
2023-05-02T18:33:53.392Z,15.40
2023-05-02T18:36:27.133Z,15.40
2023-05-02T18:38:57.232Z,15.30
2023-05-02T18:41:23.943Z,15.20
2023-05-02T18:43:50.497Z,15.10
2023-05-02T18:46:17.316Z,15.10
2023-05-02T18:48:44.042Z,15.00
2023-05-02T18:51:10.804Z,14.90
2023-05-02T18:53:37.410Z,14.80
2023-05-02T18:56:04.195Z,14.80
2023-05-02T18:58:30.795Z,14.60
2023-05-02T19:00:57.392Z,14.60
2023-05-02T19:03:24.128Z,14.50
2023-05-02T19:05:51.274Z,14.40
2023-05-02T19:08:17.951Z,14.40
2023-05-02T19:10:44.537Z,14.30
2023-05-02T19:13:11.125Z,14.20
2023-05-02T19:15:37.857Z,14.20
2023-05-02T19:18:04.508Z,14.20
2023-05-02T19:20:31.376Z,14.10
2023-05-02T19:23:17.664Z,14.00
2023-05-02T19:25:44.914Z,14.00
2023-05-02T19:28:12.278Z,14.00
2023-05-02T19:30:42.437Z,13.90
2023-05-02T19:35:36.493Z,13.80
2023-05-02T19:38:03.723Z,13.70
2023-05-02T19:40:30.969Z,13.70
2023-05-02T19:42:57.524Z,13.60
2023-05-02T19:45:24.218Z,13.70
2023-05-02T19:47:50.839Z,13.60
2023-05-02T19:50:17.596Z,13.60
2023-05-02T19:52:44.944Z,13.50
2023-05-02T19:55:11.704Z,13.60
2023-05-02T19:57:38.407Z,13.50
2023-05-02T20:00:06.737Z,13.50
2023-05-02T20:02:33.673Z,13.50
2023-05-02T20:05:00.429Z,13.40
2023-05-02T20:07:27.010Z,13.50
2023-05-02T20:09:53.724Z,13.50
2023-05-02T20:12:20.320Z,13.40
2023-05-02T20:14:47.075Z,13.40
2023-05-02T20:17:13.639Z,13.40
2023-05-02T20:19:40.297Z,13.30
2023-05-02T20:22:06.905Z,13.30
2023-05-02T20:24:33.527Z,13.30
2023-05-02T20:27:00.148Z,13.20
2023-05-02T20:29:26.802Z,13.20
2023-05-02T20:31:54.534Z,13.10
2023-05-02T20:34:22.860Z,13.00
2023-05-02T20:36:49.461Z,13.00
2023-05-02T20:39:20.285Z,12.90
2023-05-02T20:41:48.209Z,12.90
2023-05-02T20:49:10.466Z,12.90
2023-05-02T20:51:38.385Z,12.90
2023-05-02T20:54:05.055Z,12.80
2023-05-02T20:56:31.614Z,12.80
2023-05-02T20:58:58.440Z,12.70
2023-05-02T21:01:26.145Z,12.70
2023-05-02T21:03:52.763Z,12.60
2023-05-02T21:06:21.048Z,12.70
2023-05-02T21:11:15.408Z,12.60
2023-05-02T21:13:43.102Z,12.60
2023-05-02T21:16:13.476Z,12.50
2023-05-02T21:23:34.156Z,12.50
2023-05-02T21:26:00.728Z,12.40
2023-05-02T21:28:27.469Z,12.30
2023-05-02T21:30:54.035Z,12.30
2023-05-02T21:40:41.599Z,12.20
2023-05-02T21:43:08.215Z,12.20
2023-05-02T21:45:34.884Z,12.00
2023-05-02T21:48:01.614Z,12.00
2023-05-02T21:50:29.345Z,11.90
2023-05-02T21:52:55.884Z,11.90
2023-05-02T21:57:49.440Z,11.90
2023-05-02T22:00:16.060Z,11.80
2023-05-02T22:05:11.448Z,11.70
2023-05-02T22:07:38.093Z,11.70
2023-05-02T22:10:05.320Z,11.60
2023-05-02T22:22:20.442Z,11.50
2023-05-02T22:46:50.915Z,11.10
2023-05-02T22:51:47.202Z,11.00
2023-05-02T22:54:15.170Z,11.00
2023-05-02T22:56:41.724Z,11.00
2023-05-02T23:01:35.320Z,11.00
2023-05-02T23:04:02.048Z,11.00
2023-05-02T23:06:28.848Z,11.10
2023-05-02T23:11:22.581Z,11.00
2023-05-02T23:23:37.252Z,11.10
2023-05-02T23:33:25.886Z,10.90
2023-05-02T23:38:19.451Z,10.80
2023-05-02T23:40:46.165Z,10.70
2023-05-02T23:45:40.513Z,10.50
